createdAt,value
2022-11-22T00:00:28.001Z,85124.44
2022-11-22T00:02:55.317Z,85134.00
2022-11-22T00:05:22.400Z,85140.69
2022-11-22T00:07:49.388Z,85113.47
2022-11-22T00:10:16.658Z,85131.78
2022-11-22T00:12:44.529Z,85134.50
2022-11-22T00:15:12.813Z,85089.47
2022-11-22T00:17:39.811Z,85105.16
2022-11-22T00:20:10.737Z,85135.94
2022-11-22T00:22:43.942Z,85142.19
2022-11-22T00:25:11.565Z,85127.78
2022-11-22T00:27:38.552Z,85136.06
2022-11-22T00:30:06.241Z,85142.81
2022-11-22T00:32:33.269Z,85142.19
2022-11-22T00:35:00.214Z,85136.69
2022-11-22T00:37:27.263Z,85127.09
2022-11-22T00:39:54.264Z,85110.19
2022-11-22T00:42:21.212Z,85136.09
2022-11-22T00:44:48.154Z,85132.03
2022-11-22T00:47:15.051Z,85134.75
2022-11-22T00:49:42.113Z,85136.13
2022-11-22T00:52:09.074Z,85125.34
2022-11-22T00:54:36.085Z,85141.91
2022-11-22T00:57:03.328Z,85105.00
2022-11-22T00:59:30.600Z,85139.81
2022-11-22T01:01:57.827Z,85110.53
2022-11-22T01:04:24.819Z,85135.81
2022-11-22T01:06:51.751Z,85121.47
2022-11-22T01:09:21.709Z,85128.28
2022-11-22T01:11:49.038Z,85154.25
2022-11-22T01:14:17.040Z,85141.97
2022-11-22T01:16:44.451Z,85135.16
2022-11-22T01:19:11.506Z,85128.50
2022-11-22T01:21:38.910Z,85109.41
2022-11-22T01:24:06.459Z,85151.66
2022-11-22T01:26:34.195Z,85094.94
2022-11-22T01:29:01.295Z,85090.97
2022-11-22T01:31:30.196Z,85130.13
2022-11-22T01:33:59.132Z,85131.41
2022-11-22T01:36:27.632Z,85157.38
2022-11-22T01:38:54.911Z,85142.38
2022-11-22T01:41:22.066Z,85119.28
2022-11-22T01:43:49.119Z,85135.56
2022-11-22T01:46:34.560Z,85121.81
2022-11-22T01:49:06.137Z,85130.69
2022-11-22T01:51:38.807Z,85123.91
2022-11-22T01:54:10.671Z,85133.41
2022-11-22T01:56:39.706Z,85113.03
2022-11-22T01:59:13.692Z,85128.03
2022-11-22T02:01:40.671Z,85120.53
2022-11-22T02:04:11.090Z,85128.69
2022-11-22T02:07:00.109Z,85152.66
2022-11-22T02:09:29.559Z,85106.22
2022-11-22T02:12:00.374Z,85123.28
2022-11-22T02:14:29.037Z,85136.94
2022-11-22T02:16:55.980Z,85083.03
2022-11-22T02:19:46.533Z,85146.53
2022-11-22T02:22:28.191Z,85131.50
2022-11-22T02:25:03.123Z,85148.59
2022-11-22T02:27:30.036Z,85115.81
2022-11-22T02:29:56.890Z,85119.97
2022-11-22T02:32:24.044Z,85124.75
2022-11-22T02:34:51.914Z,85156.19
2022-11-22T02:37:24.163Z,85111.84
2022-11-22T02:39:57.431Z,85121.44
2022-11-22T02:42:26.302Z,85146.75
2022-11-22T02:44:53.165Z,85127.59
2022-11-22T02:47:20.093Z,85126.94
2022-11-22T02:49:47.033Z,85155.63
2022-11-22T02:52:18.695Z,85140.63
2022-11-22T02:54:46.553Z,85157.72
2022-11-22T02:57:14.342Z,85162.47
2022-11-22T02:59:41.365Z,85146.13
2022-11-22T03:02:08.464Z,85185.78
2022-11-22T03:04:35.366Z,85167.41
2022-11-22T03:07:02.676Z,85192.69
2022-11-22T03:09:30.010Z,85196.13
2022-11-22T03:11:57.159Z,85180.44
2022-11-22T03:14:24.543Z,85208.47
2022-11-22T03:16:51.755Z,85193.44
2022-11-22T03:19:18.650Z,85186.59
2022-11-22T03:21:45.614Z,85176.31
2022-11-22T03:24:12.565Z,85204.34
2022-11-22T03:26:39.623Z,85190.69
2022-11-22T03:29:06.604Z,85181.13
2022-11-22T03:31:33.598Z,85203.03
2022-11-22T03:34:00.644Z,85192.75
2022-11-22T03:36:27.598Z,85163.38
2022-11-22T03:38:54.528Z,85180.47
2022-11-22T03:41:21.508Z,85157.94
2022-11-22T03:43:48.442Z,85189.41
2022-11-22T03:46:19.696Z,85222.94
2022-11-22T03:48:47.366Z,85199.00
2022-11-22T03:51:14.349Z,85225.00
2022-11-22T03:53:41.481Z,85228.44
2022-11-22T03:56:08.493Z,85225.00
2022-11-22T03:58:35.467Z,85197.63
2022-11-22T04:01:02.420Z,85199.00
2022-11-22T04:03:29.519Z,85193.56
2022-11-22T04:05:56.843Z,85222.28
2022-11-22T04:08:24.251Z,85214.75
2022-11-22T04:10:51.665Z,85184.66
2022-11-22T04:13:19.493Z,85209.97
2022-11-22T04:15:46.495Z,85201.06
2022-11-22T04:18:14.767Z,85197.69
2022-11-22T04:21:00.770Z,85231.25
2022-11-22T04:23:32.438Z,85175.81
2022-11-22T04:26:01.075Z,85173.75
2022-11-22T04:28:46.984Z,85166.88
2022-11-22T04:31:33.392Z,85189.47
2022-11-22T04:34:00.291Z,85215.50
2022-11-22T04:36:27.151Z,85238.75
2022-11-22T04:38:54.202Z,85189.47
2022-11-22T04:41:21.173Z,85223.00
2022-11-22T04:44:06.869Z,85208.63
2022-11-22T04:46:33.875Z,85212.06
2022-11-22T04:49:00.776Z,85225.06
2022-11-22T04:51:46.350Z,85218.22
2022-11-22T04:54:13.248Z,85268.22
2022-11-22T04:56:40.324Z,85229.19
2022-11-22T04:59:07.397Z,85243.56
2022-11-22T05:01:34.408Z,85268.91
2022-11-22T05:04:01.326Z,85293.53
2022-11-22T05:06:28.291Z,85306.56
2022-11-22T05:08:55.375Z,85288.06
2022-11-22T05:11:22.229Z,85329.16
2022-11-22T05:13:49.125Z,85315.44
2022-11-22T05:16:16.194Z,85322.31
2022-11-22T05:18:43.146Z,85330.50
2022-11-22T05:21:14.756Z,85329.13
2022-11-22T05:23:56.761Z,85298.25
2022-11-22T05:26:42.188Z,85323.63
2022-11-22T05:29:10.877Z,85314.69
2022-11-22T05:31:39.487Z,85322.25
2022-11-22T05:34:06.538Z,85305.81
2022-11-22T05:36:34.428Z,85314.03
2022-11-22T05:39:02.036Z,85290.72
2022-11-22T05:41:29.048Z,85314.00
2022-11-22T05:43:59.616Z,85331.84
2022-11-22T05:46:29.019Z,85311.97
2022-11-22T05:48:57.880Z,85348.25
2022-11-22T05:51:33.548Z,85338.63
2022-11-22T05:54:01.395Z,85325.56
2022-11-22T05:56:28.216Z,85300.91
2022-11-22T05:58:55.453Z,85295.44
2022-11-22T06:01:24.293Z,85350.97
2022-11-22T06:03:51.812Z,85351.66
2022-11-22T06:06:18.932Z,85318.03
2022-11-22T06:08:48.365Z,85363.31
2022-11-22T06:11:18.759Z,85368.78
2022-11-22T06:13:48.169Z,85338.63
2022-11-22T06:16:15.750Z,85361.94
2022-11-22T06:18:42.994Z,85366.72
2022-11-22T06:21:15.582Z,85353.69
2022-11-22T06:23:42.587Z,85349.56
2022-11-22T06:26:14.904Z,85382.47
2022-11-22T06:28:42.225Z,85363.94
2022-11-22T06:31:20.556Z,85385.22
2022-11-22T06:33:48.179Z,85352.31
2022-11-22T06:36:17.636Z,85392.78
2022-11-22T06:38:45.749Z,85397.56
2022-11-22T06:41:15.073Z,85397.56
2022-11-22T06:43:48.278Z,85410.59
2022-11-22T06:46:20.551Z,85383.13
2022-11-22T06:48:47.992Z,85377.66
2022-11-22T06:51:26.414Z,85385.19
2022-11-22T06:53:57.062Z,85418.84
2022-11-22T06:56:32.652Z,85428.41
2022-11-22T06:59:04.062Z,85433.16
2022-11-22T07:01:32.172Z,85397.53
2022-11-22T07:04:00.130Z,85433.91
2022-11-22T07:06:29.746Z,85445.53
2022-11-22T07:08:56.953Z,85438.72
2022-11-22T07:11:25.996Z,85446.97
2022-11-22T07:13:54.172Z,85435.34
2022-11-22T07:16:21.872Z,85436.03
2022-11-22T07:18:50.202Z,85422.31
2022-11-22T07:21:24.904Z,85434.66
2022-11-22T07:23:52.456Z,85438.75
2022-11-22T07:26:20.698Z,85379.81
2022-11-22T07:28:47.804Z,85437.44
2022-11-22T07:31:16.540Z,85430.59
2022-11-22T07:33:44.711Z,85384.66
2022-11-22T07:36:20.321Z,85429.91
2022-11-22T07:38:48.617Z,85400.41
2022-11-22T07:41:16.946Z,85429.22
2022-11-22T07:43:44.384Z,85412.09
2022-11-22T07:46:33.393Z,85433.31
2022-11-22T07:49:02.086Z,85392.22
2022-11-22T07:51:29.762Z,85442.91
2022-11-22T07:53:56.999Z,85399.03
2022-11-22T07:56:24.391Z,85438.78
2022-11-22T07:58:51.235Z,85407.94
2022-11-22T08:01:19.202Z,85393.50
2022-11-22T08:03:46.507Z,85423.59
2022-11-22T08:06:14.638Z,85404.38
2022-11-22T08:08:41.943Z,85419.41
2022-11-22T08:11:09.039Z,85393.31
2022-11-22T08:13:36.607Z,85429.59
2022-11-22T08:16:09.436Z,85411.06
2022-11-22T08:18:38.021Z,85395.22
2022-11-22T08:21:07.278Z,85417.75
2022-11-22T08:23:34.805Z,85333.47
2022-11-22T08:26:01.800Z,85369.00
2022-11-22T08:28:28.816Z,85387.44
2022-11-22T08:31:03.388Z,85381.88
2022-11-22T08:33:30.443Z,85389.97
2022-11-22T08:35:57.404Z,85392.00
2022-11-22T08:38:26.796Z,85386.47
2022-11-22T08:40:54.183Z,85380.94
2022-11-22T08:43:21.203Z,85365.81
2022-11-22T08:45:49.569Z,85353.44
2022-11-22T08:48:21.871Z,85356.84
2022-11-22T08:51:10.071Z,85380.69
2022-11-22T08:53:39.743Z,85359.47
2022-11-22T08:56:09.885Z,85375.75
2022-11-22T08:58:37.543Z,85378.44
2022-11-22T09:01:05.718Z,85370.81
2022-11-22T09:03:34.429Z,85358.28
2022-11-22T09:09:08.783Z,85350.63
2022-11-22T09:11:41.124Z,85350.59
2022-11-22T09:14:08.136Z,85357.41
2022-11-22T09:16:35.126Z,85330.53
2022-11-22T09:19:02.028Z,85359.22
2022-11-22T09:21:28.957Z,85344.66
2022-11-22T09:23:55.849Z,85341.91
2022-11-22T09:26:25.376Z,85340.44
2022-11-22T09:28:53.519Z,85314.34
2022-11-22T09:31:24.052Z,85329.31
2022-11-22T09:33:52.384Z,85332.69
2022-11-22T09:36:22.034Z,85322.50
2022-11-22T09:38:49.725Z,85334.53
2022-11-22T09:41:16.485Z,85330.41
2022-11-22T09:43:43.314Z,85332.44
2022-11-22T09:46:34.327Z,85331.66
2022-11-22T09:49:40.204Z,85324.16
2022-11-22T09:52:10.722Z,85330.41
2022-11-22T09:54:48.375Z,85337.94
2022-11-22T09:57:25.083Z,85338.66
2022-11-22T10:00:03.989Z,85346.34
2022-11-22T10:02:59.890Z,85351.94
2022-11-22T10:05:46.314Z,85329.44
2022-11-22T10:08:39.551Z,85355.53
2022-11-22T10:11:18.124Z,85319.56
2022-11-22T10:13:56.586Z,85329.94
2022-11-22T10:16:51.641Z,85356.53
2022-11-22T10:19:35.013Z,85325.16
2022-11-22T10:22:02.040Z,85299.09
2022-11-22T10:24:29.236Z,85342.06
2022-11-22T10:26:58.061Z,85329.09
2022-11-22T10:29:43.948Z,85348.81
2022-11-22T10:32:27.431Z,85322.94
2022-11-22T10:35:20.377Z,85339.28
2022-11-22T10:38:05.389Z,85339.22
2022-11-22T10:40:55.147Z,85305.03
2022-11-22T10:43:39.329Z,85289.41
2022-11-22T10:46:42.993Z,85310.59
2022-11-22T10:49:20.940Z,85334.06
2022-11-22T10:52:17.267Z,85329.91
2022-11-22T10:55:03.650Z,85313.38
2022-11-22T10:57:48.517Z,85314.75
2022-11-22T11:00:15.502Z,85299.53
2022-11-22T11:03:17.390Z,85300.81
2022-11-22T11:11:35.579Z,85299.38
2022-11-22T11:14:17.087Z,85306.84
2022-11-22T11:16:44.628Z,85286.72
2022-11-22T11:19:15.725Z,85269.88
2022-11-22T11:21:42.904Z,85296.44
2022-11-22T11:24:17.245Z,85292.09
2022-11-22T11:26:53.795Z,85227.97
2022-11-22T11:29:37.407Z,85285.94
2022-11-22T11:32:11.107Z,85280.25
2022-11-22T11:34:41.411Z,85291.47
2022-11-22T11:37:18.640Z,85298.13
2022-11-22T11:39:48.617Z,85291.78
2022-11-22T11:42:30.573Z,85299.22
2022-11-22T11:45:27.027Z,85294.50
2022-11-22T11:47:54.085Z,85280.47
2022-11-22T11:50:25.064Z,85309.75
2022-11-22T11:52:56.413Z,85307.13
2022-11-22T11:55:23.830Z,85295.19
2022-11-22T11:57:52.648Z,85278.81
2022-11-22T12:00:26.280Z,85265.88
2022-11-22T12:03:02.144Z,85250.00
2022-11-22T12:05:32.215Z,85189.06
2022-11-22T12:08:03.510Z,85214.81
2022-11-22T12:11:04.269Z,85247.44
2022-11-22T12:14:12.277Z,85215.84
2022-11-22T12:16:34.980Z,85237.09
2022-11-22T12:19:24.777Z,85210.88
2022-11-22T12:22:10.390Z,85238.06
2022-11-22T12:25:03.132Z,85186.91
2022-11-22T12:27:34.855Z,85218.69
2022-11-22T12:30:02.088Z,85256.53
2022-11-22T12:32:36.864Z,85220.06
2022-11-22T12:35:13.789Z,85222.31
2022-11-22T12:37:50.285Z,85237.16
2022-11-22T12:40:21.327Z,85226.06
2022-11-22T12:42:53.978Z,85206.25
2022-11-22T12:45:30.284Z,85241.16
2022-11-22T12:48:48.345Z,85225.91
2022-11-22T12:51:26.736Z,85234.16
2022-11-22T12:54:00.203Z,85226.47
2022-11-22T12:56:33.819Z,85231.53
2022-11-22T12:59:15.685Z,85223.41
2022-11-22T13:01:42.631Z,85209.84
2022-11-22T13:04:09.482Z,85209.69
2022-11-22T13:07:11.895Z,85203.16
2022-11-22T13:09:45.017Z,85223.53
2022-11-22T13:12:16.321Z,85213.19
2022-11-22T13:14:52.677Z,85197.75
2022-11-22T13:17:20.568Z,85245.06
2022-11-22T13:19:54.292Z,85275.41
2022-11-22T13:22:55.193Z,85255.53
2022-11-22T13:25:24.693Z,85258.06
2022-11-22T13:27:53.252Z,85191.19
2022-11-22T13:30:23.445Z,85223.31
2022-11-22T13:32:54.604Z,85249.84
2022-11-22T13:35:28.211Z,85254.16
2022-11-22T13:38:11.445Z,85246.72
2022-11-22T13:40:51.385Z,85233.72
2022-11-22T13:43:22.220Z,85222.69
2022-11-22T13:45:50.899Z,85234.38
2022-11-22T13:48:39.767Z,85223.28
2022-11-22T13:51:14.158Z,85231.50
2022-11-22T13:53:46.150Z,85198.00
2022-11-22T13:56:15.787Z,85225.59
2022-11-22T13:58:51.348Z,85204.34
2022-11-22T14:01:31.065Z,85207.56
2022-11-22T14:04:16.163Z,85192.97
2022-11-22T14:06:49.508Z,85213.44
2022-11-22T14:09:38.931Z,85213.47
2022-11-22T14:12:11.729Z,85213.94
2022-11-22T14:14:49.583Z,85220.97
2022-11-22T14:17:34.492Z,85234.84
2022-11-22T14:20:22.644Z,85225.50
2022-11-22T14:23:20.424Z,85229.06
2022-11-22T14:26:02.734Z,85230.16
2022-11-22T14:28:29.748Z,85227.47
2022-11-22T14:30:57.789Z,85215.16
2022-11-22T14:33:29.074Z,85218.81
2022-11-22T14:36:08.387Z,85222.34
2022-11-22T14:38:39.378Z,85205.84
2022-11-22T14:41:31.158Z,85218.31
2022-11-22T14:44:10.633Z,85200.78
2022-11-22T14:46:54.556Z,85198.75
2022-11-22T14:49:26.648Z,85213.06
2022-11-22T14:51:56.239Z,85197.97
2022-11-22T14:54:28.623Z,85167.22
2022-11-22T14:57:03.946Z,85186.97
2022-11-22T14:59:58.386Z,85195.91
2022-11-22T15:02:53.071Z,85176.66
2022-11-22T15:09:13.284Z,85182.81
2022-11-22T15:09:21.748Z,85177.25
2022-11-22T15:11:30.100Z,85188.31
2022-11-22T15:14:18.527Z,85197.88
2022-11-22T15:57:37.751Z,85100.63
2022-11-22T16:00:28.988Z,85144.38
2022-11-22T16:03:01.844Z,85119.25
2022-11-22T16:06:07.929Z,85147.78
2022-11-22T16:08:27.847Z,85145.66
2022-11-22T16:10:59.339Z,85131.97
2022-11-22T16:13:28.399Z,85139.53
2022-11-22T16:16:04.473Z,85152.53
2022-11-22T16:18:31.815Z,85142.41
2022-11-22T16:21:07.319Z,85144.94
2022-11-22T16:23:37.023Z,85122.38
2022-11-22T16:26:25.178Z,85166.13
2022-11-22T16:28:54.424Z,85106.06
2022-11-22T16:31:26.605Z,85171.84
2022-11-22T16:33:55.150Z,85134.88
2022-11-22T16:36:24.029Z,85158.78
2022-11-22T16:38:51.396Z,85137.09
2022-11-22T16:41:24.326Z,85161.03
2022-11-22T16:44:12.946Z,85118.78
2022-11-22T16:46:40.878Z,85164.69
2022-11-22T16:49:25.737Z,85139.53
2022-11-22T16:51:52.737Z,85168.28
2022-11-22T16:54:20.970Z,85160.06
2022-11-22T16:56:48.034Z,85157.38
2022-11-22T16:59:15.011Z,85117.09
2022-11-22T17:01:43.044Z,85158.16
2022-11-22T17:04:25.358Z,85179.22
2022-11-22T17:06:52.805Z,85167.00
2022-11-22T17:09:20.109Z,85177.91
2022-11-22T17:11:47.160Z,85147.06
2022-11-22T17:14:15.793Z,85119.81
2022-11-22T17:16:45.805Z,85137.69
2022-11-22T17:22:01.052Z,85170.34
2022-11-22T17:24:29.202Z,85168.31
2022-11-22T17:26:56.412Z,85177.81
2022-11-22T17:32:13.907Z,85133.97
2022-11-22T17:34:40.918Z,85132.50
2022-11-22T17:37:12.349Z,85143.41
2022-11-22T17:39:39.686Z,85143.94
2022-11-22T17:42:06.961Z,85066.03
2022-11-22T17:44:34.339Z,85088.59
2022-11-22T17:47:01.315Z,85111.78
2022-11-22T17:49:28.885Z,85070.81
2022-11-22T17:51:56.184Z,85078.91
2022-11-22T17:54:23.151Z,85091.22
2022-11-22T17:56:50.047Z,85101.47
2022-11-22T17:59:16.950Z,85114.56
2022-11-22T18:01:43.843Z,85048.78
2022-11-22T18:04:10.834Z,85070.16
2022-11-22T18:06:37.801Z,85016.28
2022-11-22T18:09:04.785Z,85048.28
2022-11-22T18:11:33.282Z,85085.84
2022-11-22T18:14:00.424Z,85078.28
2022-11-22T18:16:29.099Z,85085.69
2022-11-22T18:18:57.900Z,85078.78
2022-11-22T18:21:27.042Z,85085.66
2022-11-22T18:23:54.149Z,85039.81
2022-11-22T18:26:38.961Z,85014.44
2022-11-22T18:31:54.828Z,85021.28
2022-11-22T18:34:22.963Z,85049.97
2022-11-22T18:36:55.968Z,85052.78
2022-11-22T18:39:26.480Z,85052.06
2022-11-22T18:41:53.646Z,85015.94
2022-11-22T18:44:20.658Z,85067.81
2022-11-22T18:46:47.989Z,85029.56
2022-11-22T18:49:15.305Z,85013.16
2022-11-22T18:51:42.318Z,85006.34
2022-11-22T18:54:10.593Z,85055.44
2022-11-22T18:56:40.501Z,85043.22
2022-11-22T18:59:10.671Z,85049.97
2022-11-22T19:01:37.814Z,85021.25
2022-11-22T19:04:04.964Z,85014.94
2022-11-22T19:06:32.333Z,84993.81
2022-11-22T19:08:59.326Z,85038.97
2022-11-22T19:11:28.630Z,85018.47
2022-11-22T19:13:55.717Z,85032.19
2022-11-22T19:16:23.147Z,85021.97
2022-11-22T19:18:50.401Z,84992.66
2022-11-22T19:21:19.879Z,85026.81
2022-11-22T19:23:47.830Z,84972.31
2022-11-22T19:26:17.152Z,85015.22
2022-11-22T19:28:44.104Z,85010.41
2022-11-22T19:31:13.563Z,84955.72
2022-11-22T19:33:41.396Z,84984.34
2022-11-22T19:36:12.802Z,84942.06
2022-11-22T19:38:39.918Z,84955.59
2022-11-22T19:41:09.135Z,84995.31
2022-11-22T19:43:36.582Z,84973.31
2022-11-22T19:46:03.808Z,84948.75
2022-11-22T19:48:31.441Z,84954.19
2022-11-22T19:50:58.558Z,84948.00
2022-11-22T19:53:25.556Z,84980.78
2022-11-22T19:55:52.462Z,84968.09
2022-11-22T19:58:20.471Z,84995.22
2022-11-22T20:00:47.871Z,85000.56
2022-11-22T20:03:14.809Z,85004.69
2022-11-22T20:05:42.248Z,84967.00
2022-11-22T20:08:10.219Z,84956.84
2022-11-22T20:10:38.578Z,84977.88
2022-11-22T20:13:10.378Z,84956.09
2022-11-22T20:15:37.493Z,85005.13
2022-11-22T20:18:04.586Z,84977.06
2022-11-22T20:20:31.463Z,84951.16
2022-11-22T20:22:58.473Z,85014.00
2022-11-22T20:25:25.471Z,84986.63
2022-11-22T20:27:52.472Z,84987.78
2022-11-22T20:30:19.636Z,84961.72
2022-11-22T20:32:46.605Z,84973.22
2022-11-22T20:35:13.607Z,84972.03
2022-11-22T20:37:40.613Z,84952.78
2022-11-22T20:40:07.830Z,85000.50
2022-11-22T20:42:35.368Z,84991.50
2022-11-22T20:45:05.214Z,84956.03
2022-11-22T20:47:32.176Z,84973.63
2022-11-22T20:49:59.154Z,84988.06
2022-11-22T20:52:26.103Z,84938.38
2022-11-22T20:54:53.151Z,84957.44
2022-11-22T20:57:20.363Z,84990.06
2022-11-22T20:59:47.264Z,84939.59
2022-11-22T21:02:14.168Z,84932.69
2022-11-22T21:04:41.547Z,84976.81
2022-11-22T21:07:08.974Z,84957.97
2022-11-22T21:09:35.931Z,84971.50
2022-11-22T21:12:02.878Z,84947.66
2022-11-22T21:14:30.101Z,84932.44
2022-11-22T21:16:57.189Z,84948.66
2022-11-22T21:19:25.218Z,84959.03
2022-11-22T21:21:52.134Z,84943.38
2022-11-22T21:24:19.108Z,84970.47
2022-11-22T21:26:46.070Z,84951.19
2022-11-22T21:29:16.801Z,84934.81
2022-11-22T21:31:44.026Z,84942.88
2022-11-22T21:34:11.226Z,84899.09
2022-11-22T21:36:38.224Z,84933.19
2022-11-22T21:39:05.182Z,84925.47
2022-11-22T21:41:40.513Z,84917.28
2022-11-22T21:44:09.380Z,84916.31
2022-11-22T21:46:36.922Z,84880.88
2022-11-22T21:49:03.829Z,84917.50
2022-11-22T21:51:32.049Z,84901.75
2022-11-22T21:54:00.955Z,84853.38
2022-11-22T21:56:28.460Z,84857.38
2022-11-22T21:58:55.324Z,84875.06
2022-11-22T22:01:23.229Z,84867.47
2022-11-22T22:03:50.427Z,84850.31
2022-11-22T22:06:17.531Z,84868.88
2022-11-22T22:08:44.386Z,84882.56
2022-11-22T22:11:14.719Z,84827.28
2022-11-22T22:13:41.524Z,84853.72
2022-11-22T22:16:13.124Z,84849.72
2022-11-22T22:18:40.194Z,84857.78
2022-11-22T22:21:09.720Z,84859.66
2022-11-22T22:23:38.814Z,84884.81
2022-11-22T22:26:08.066Z,84868.19
2022-11-22T22:28:36.667Z,84865.97
2022-11-22T22:31:21.917Z,84866.63
2022-11-22T22:33:55.132Z,84859.72
2022-11-22T22:36:26.687Z,84849.94
2022-11-22T22:38:54.390Z,84847.81
2022-11-22T22:41:21.308Z,84851.09
2022-11-22T22:43:53.674Z,84847.56
2022-11-22T22:46:22.923Z,84851.00
2022-11-22T22:48:51.300Z,84818.84
2022-11-22T22:51:29.023Z,84821.31
2022-11-22T22:53:59.166Z,84791.94
2022-11-22T22:56:28.623Z,84796.56
2022-11-22T22:58:56.870Z,84765.16
2022-11-22T23:01:28.950Z,84790.81
2022-11-22T23:03:58.938Z,84793.16
2022-11-22T23:06:36.784Z,84767.94
2022-11-22T23:09:06.666Z,84820.31
2022-11-22T23:11:53.712Z,84825.75
2022-11-22T23:14:30.218Z,84827.16
2022-11-22T23:16:58.405Z,84797.34
2022-11-22T23:19:26.503Z,84791.56
2022-11-22T23:21:54.822Z,84744.41
2022-11-22T23:24:21.927Z,84777.53
2022-11-22T23:26:48.834Z,84752.53
2022-11-22T23:29:15.715Z,84756.81
2022-11-22T23:31:42.659Z,84772.97
2022-11-22T23:34:11.018Z,84764.59
2022-11-22T23:36:40.928Z,84766.00
2022-11-22T23:39:08.897Z,84761.97
2022-11-22T23:41:35.965Z,84771.22
2022-11-22T23:44:03.166Z,84752.00
2022-11-22T23:46:30.302Z,84714.31
2022-11-22T23:48:59.550Z,84776.06
2022-11-22T23:51:27.774Z,84720.16
2022-11-22T23:53:59.658Z,84772.44
2022-11-22T23:56:28.296Z,84764.78
2022-11-22T23:58:55.512Z,84768.94
